createdAt,value
2022-09-06T00:01:16.563Z,18.40
2022-09-06T00:03:43.759Z,18.30
2022-09-06T00:06:14.536Z,18.20
2022-09-06T00:08:43.242Z,18.30
2022-09-06T00:11:10.299Z,18.40
2022-09-06T00:13:37.693Z,18.40
2022-09-06T00:16:19.599Z,18.40
2022-09-06T00:18:46.684Z,18.30
2022-09-06T00:21:19.728Z,18.20
2022-09-06T00:23:46.447Z,18.20
2022-09-06T00:26:13.161Z,18.20
2022-09-06T00:28:40.005Z,18.30
2022-09-06T00:31:25.556Z,18.30
2022-09-06T00:33:52.469Z,18.20
2022-09-06T00:36:20.696Z,18.10
2022-09-06T00:38:47.530Z,18.30
2022-09-06T00:41:16.083Z,18.30
2022-09-06T00:43:43.371Z,18.40
2022-09-06T00:46:17.132Z,18.40
2022-09-06T00:48:49.070Z,18.30
2022-09-06T00:51:19.750Z,18.20
2022-09-06T00:53:46.680Z,18.20
2022-09-06T00:56:14.022Z,18.20
2022-09-06T00:58:40.713Z,18.20
2022-09-06T01:01:07.404Z,18.30
2022-09-06T01:03:35.730Z,18.30
2022-09-06T01:09:31.550Z,18.40
2022-09-06T01:16:35.574Z,18.40
2022-09-06T01:21:01.381Z,18.40
2022-09-06T01:25:34.154Z,18.40
2022-09-06T01:28:38.792Z,18.40
2022-09-06T01:31:38.049Z,18.20
2022-09-06T01:36:23.581Z,18.30
2022-09-06T01:38:50.393Z,18.10
2022-09-06T01:41:16.916Z,18.00
2022-09-06T01:43:47.931Z,18.10
2022-09-06T01:51:08.027Z,18.00
2022-09-06T01:56:38.763Z,17.80
2022-09-06T02:00:16.426Z,17.80
2022-09-06T02:03:59.862Z,17.80
2022-09-06T02:06:43.215Z,17.70
2022-09-06T02:09:21.091Z,17.50
2022-09-06T02:11:58.941Z,17.30
2022-09-06T02:14:43.270Z,17.30
2022-09-06T02:17:17.382Z,17.50
2022-09-06T02:20:33.096Z,17.70
2022-09-06T02:23:05.151Z,17.60
2022-09-06T02:25:43.434Z,17.40
2022-09-06T02:28:10.519Z,17.30
2022-09-06T02:30:44.094Z,17.10
2022-09-06T02:33:17.961Z,17.00
2022-09-06T02:35:52.222Z,17.00
2022-09-06T02:38:23.424Z,16.90
2022-09-06T02:40:53.704Z,17.00
2022-09-06T02:43:21.010Z,17.00
2022-09-06T02:45:47.624Z,16.90
2022-09-06T02:48:14.163Z,16.90
2022-09-06T02:50:40.698Z,16.90
2022-09-06T02:53:16.350Z,16.90
2022-09-06T02:55:44.984Z,16.90
2022-09-06T02:58:11.945Z,16.80
2022-09-06T03:00:38.727Z,16.80
2022-09-06T03:03:05.308Z,16.70
2022-09-06T03:05:32.483Z,16.70
2022-09-06T03:07:59.049Z,16.90
2022-09-06T03:10:25.746Z,16.90
2022-09-06T03:12:52.874Z,16.90
2022-09-06T03:15:19.735Z,16.90
2022-09-06T03:17:46.270Z,17.00
2022-09-06T03:20:13.365Z,16.90
2022-09-06T03:22:40.694Z,16.90
2022-09-06T03:25:09.315Z,17.00
2022-09-06T03:27:36.355Z,17.00
2022-09-06T03:30:04.991Z,16.90
2022-09-06T03:32:31.523Z,16.90
2022-09-06T03:34:58.899Z,16.80
2022-09-06T03:37:25.437Z,16.80
2022-09-06T03:39:51.975Z,16.70
2022-09-06T03:42:18.530Z,16.80
2022-09-06T03:44:45.146Z,16.80
2022-09-06T03:47:11.679Z,16.80
2022-09-06T03:49:38.738Z,16.80
2022-09-06T03:52:05.672Z,16.80
2022-09-06T03:54:32.187Z,17.00
2022-09-06T03:56:58.710Z,17.00
2022-09-06T03:59:25.289Z,17.00
2022-09-06T04:01:51.846Z,16.90
2022-09-06T04:04:18.364Z,16.80
2022-09-06T04:06:44.880Z,16.80
2022-09-06T04:09:11.414Z,16.80
2022-09-06T04:11:37.917Z,16.80
2022-09-06T04:14:04.430Z,16.70
2022-09-06T04:16:30.964Z,16.70
2022-09-06T04:18:59.768Z,16.60
2022-09-06T04:21:27.102Z,16.60
2022-09-06T04:23:53.674Z,16.70
2022-09-06T04:26:20.200Z,16.70
2022-09-06T04:28:46.970Z,16.60
2022-09-06T04:31:13.504Z,16.60
2022-09-06T04:33:41.022Z,16.60
2022-09-06T04:36:10.791Z,16.60
2022-09-06T04:38:41.325Z,16.60
2022-09-06T04:41:10.922Z,16.70
2022-09-06T04:43:37.699Z,16.80
2022-09-06T04:46:21.090Z,16.80
2022-09-06T04:48:52.216Z,16.70
2022-09-06T04:51:19.174Z,16.70
2022-09-06T04:53:45.961Z,16.70
2022-09-06T04:56:19.208Z,16.70
2022-09-06T04:58:47.663Z,16.80
2022-09-06T05:01:15.022Z,16.90
2022-09-06T05:03:41.836Z,17.00
2022-09-06T05:06:26.580Z,16.90
2022-09-06T05:08:53.125Z,17.00
2022-09-06T05:11:19.944Z,17.10
2022-09-06T05:13:47.054Z,17.20
2022-09-06T05:16:13.702Z,17.30
2022-09-06T05:18:40.278Z,17.40
2022-09-06T05:21:06.960Z,17.50
2022-09-06T05:23:33.718Z,17.50
2022-09-06T05:26:00.237Z,17.60
2022-09-06T05:28:26.884Z,17.60
2022-09-06T05:30:53.586Z,17.70
2022-09-06T05:33:22.126Z,17.70
2022-09-06T05:35:49.253Z,17.80
2022-09-06T05:38:15.896Z,17.80
2022-09-06T05:40:42.644Z,18.00
2022-09-06T05:43:09.225Z,18.10
2022-09-06T05:45:35.883Z,18.30
2022-09-06T05:48:02.991Z,18.40
2022-09-06T05:50:29.505Z,18.30
2022-09-06T05:52:56.034Z,18.20
2022-09-06T05:55:22.727Z,18.20
2022-09-06T05:57:49.250Z,18.10
2022-09-06T06:00:16.069Z,18.00
2022-09-06T06:02:47.127Z,18.00
2022-09-06T06:05:14.108Z,18.20
2022-09-06T06:07:40.607Z,18.40
2022-09-06T06:10:07.602Z,18.50
2022-09-06T06:12:34.125Z,18.80
2022-09-06T06:15:00.669Z,19.00
2022-09-06T06:17:27.326Z,19.30
2022-09-06T06:19:54.077Z,19.30
2022-09-06T06:22:20.590Z,19.40
2022-09-06T06:24:47.118Z,19.60
2022-09-06T06:27:13.633Z,19.80
2022-09-06T06:29:40.207Z,20.00
2022-09-06T06:32:06.797Z,20.10
2022-09-06T06:34:33.410Z,20.40
2022-09-06T06:36:59.916Z,20.30
2022-09-06T06:39:26.539Z,20.40
2022-09-06T06:41:53.083Z,20.70
2022-09-06T06:44:19.612Z,20.80
2022-09-06T06:46:46.149Z,20.80
2022-09-06T06:49:12.685Z,21.00
2022-09-06T06:51:39.245Z,21.20
2022-09-06T06:54:06.186Z,21.40
2022-09-06T06:56:40.278Z,21.30
2022-09-06T06:59:07.355Z,21.20
2022-09-06T07:01:36.558Z,21.20
2022-09-06T07:04:04.807Z,21.30
2022-09-06T07:12:38.750Z,21.60
2022-09-06T07:15:06.134Z,22.00
2022-09-06T07:17:33.901Z,22.40
2022-09-06T07:20:16.313Z,22.40
2022-09-06T07:22:43.287Z,22.60
2022-09-06T07:25:13.426Z,22.60
2022-09-06T07:30:13.432Z,22.90
2022-09-06T07:32:39.951Z,23.00
2022-09-06T07:35:07.508Z,22.90
2022-09-06T07:37:34.004Z,23.00
2022-09-06T07:40:00.609Z,23.10
2022-09-06T07:42:27.210Z,23.20
2022-09-06T07:44:56.975Z,23.30
2022-09-06T07:53:23.332Z,23.40
2022-09-06T07:55:52.729Z,23.70
2022-09-06T07:58:19.262Z,23.90
2022-09-06T08:00:45.819Z,23.90
2022-09-06T08:03:12.396Z,23.90
2022-09-06T08:11:34.526Z,24.00
2022-09-06T08:14:04.201Z,24.30
2022-09-06T08:16:33.606Z,24.30
2022-09-06T08:19:04.113Z,24.30
2022-09-06T08:21:32.579Z,24.50
2022-09-06T08:24:06.269Z,24.50
2022-09-06T08:26:35.972Z,24.50
2022-09-06T08:29:06.136Z,24.60
2022-09-06T08:31:35.526Z,24.80
2022-09-06T08:34:02.694Z,24.80
2022-09-06T08:36:30.581Z,24.80
2022-09-06T08:38:59.360Z,24.90
2022-09-06T08:42:12.676Z,25.00
2022-09-06T08:47:21.720Z,25.30
2022-09-06T08:50:10.396Z,25.40
2022-09-06T08:53:18.475Z,25.40
2022-09-06T08:56:18.474Z,25.40
2022-09-06T08:59:12.767Z,25.40
2022-09-06T09:02:21.862Z,25.50
2022-09-06T09:05:05.538Z,25.60
2022-09-06T09:09:14.277Z,25.50
2022-09-06T09:11:46.502Z,25.60
2022-09-06T09:14:26.608Z,25.50
2022-09-06T09:17:04.904Z,25.40
2022-09-06T09:19:35.906Z,25.40
2022-09-06T09:22:02.687Z,25.70
2022-09-06T09:24:30.637Z,25.90
2022-09-06T09:27:07.979Z,25.80
2022-09-06T09:32:59.697Z,25.80
2022-09-06T09:35:36.523Z,25.90
2022-09-06T09:38:29.431Z,25.70
2022-09-06T09:41:06.299Z,25.90
2022-09-06T09:43:41.700Z,25.80
2022-09-06T09:46:39.113Z,25.70
2022-09-06T09:49:28.434Z,25.90
2022-09-06T09:52:28.534Z,25.80
2022-09-06T09:55:06.472Z,25.90
2022-09-06T09:57:49.996Z,26.00
2022-09-06T10:00:42.443Z,26.00
2022-09-06T10:03:25.707Z,25.90
2022-09-06T10:06:02.746Z,25.80
2022-09-06T10:08:33.371Z,25.80
2022-09-06T10:11:00.213Z,25.90
2022-09-06T10:13:30.272Z,26.00
2022-09-06T10:15:59.441Z,26.10
2022-09-06T10:18:42.067Z,26.10
2022-09-06T10:21:21.492Z,26.10
2022-09-06T10:25:04.364Z,26.00
2022-09-06T10:27:32.501Z,26.00
2022-09-06T10:30:08.002Z,26.10
2022-09-06T10:35:38.949Z,26.20
2022-09-06T10:39:03.694Z,26.30
2022-09-06T10:45:52.818Z,26.40
2022-09-06T10:48:38.473Z,26.40
2022-09-06T10:51:21.485Z,26.30
2022-09-06T10:54:37.321Z,26.30
2022-09-06T10:59:58.571Z,26.40
2022-09-06T11:06:10.682Z,26.50
2022-09-06T11:10:23.306Z,26.60
2022-09-06T11:13:08.833Z,26.60
2022-09-06T11:16:33.232Z,26.70
2022-09-06T11:19:13.424Z,26.60
2022-09-06T11:26:03.891Z,26.70
2022-09-06T11:28:53.078Z,26.80
2022-09-06T11:34:37.690Z,27.00
2022-09-06T11:37:25.493Z,26.90
2022-09-06T11:40:29.921Z,27.10
2022-09-06T11:43:49.965Z,26.90
2022-09-06T11:51:21.042Z,27.00
2022-09-06T11:54:44.845Z,27.20
2022-09-06T11:57:21.008Z,27.70
2022-09-06T12:00:03.852Z,28.00
2022-09-06T12:02:41.321Z,27.80
2022-09-06T12:05:21.839Z,28.10
2022-09-06T12:12:11.463Z,28.40
2022-09-06T12:14:46.064Z,28.60
2022-09-06T12:17:24.175Z,28.60
2022-09-06T12:20:06.202Z,28.50
2022-09-06T12:22:54.035Z,28.60
2022-09-06T12:25:54.133Z,28.40
2022-09-06T12:28:32.461Z,28.20
2022-09-06T12:31:00.130Z,28.10
2022-09-06T12:33:38.103Z,28.20
2022-09-06T12:37:09.864Z,28.10
2022-09-06T12:39:36.889Z,27.80
2022-09-06T12:42:10.252Z,27.80
2022-09-06T12:44:50.249Z,27.80
2022-09-06T12:47:31.455Z,27.70
2022-09-06T12:52:19.415Z,27.60
2022-09-06T12:54:50.074Z,27.40
2022-09-06T12:57:23.832Z,27.30
2022-09-06T12:59:57.273Z,27.40
2022-09-06T13:02:45.390Z,27.50
2022-09-06T13:05:13.196Z,27.70
2022-09-06T13:07:55.048Z,27.60
2022-09-06T13:10:25.696Z,27.60
2022-09-06T13:12:55.413Z,27.60
2022-09-06T13:15:31.618Z,27.50
2022-09-06T13:20:59.556Z,27.30
2022-09-06T13:23:26.242Z,27.00
2022-09-06T13:25:55.285Z,27.10
2022-09-06T13:28:54.826Z,27.00
2022-09-06T13:31:21.812Z,27.00
2022-09-06T13:33:59.180Z,26.80
2022-09-06T13:36:33.050Z,26.80
2022-09-06T13:39:02.817Z,26.90
2022-09-06T13:41:37.709Z,27.10
2022-09-06T13:44:30.770Z,27.40
2022-09-06T13:46:58.330Z,27.50
2022-09-06T13:49:25.815Z,27.60
2022-09-06T13:51:57.322Z,27.70
2022-09-06T13:54:24.181Z,27.60
2022-09-06T13:56:50.873Z,27.50
2022-09-06T13:59:18.798Z,27.40
2022-09-06T14:02:06.951Z,27.40
2022-09-06T14:04:33.731Z,27.50
2022-09-06T14:07:00.243Z,27.60
2022-09-06T14:09:26.782Z,27.40
2022-09-06T14:11:53.318Z,27.30
2022-09-06T14:14:19.988Z,27.20
2022-09-06T14:16:47.174Z,27.20
2022-09-06T14:19:14.494Z,27.10
2022-09-06T14:21:41.259Z,27.00
2022-09-06T14:24:08.196Z,27.10
2022-09-06T14:26:36.557Z,27.10
2022-09-06T14:29:03.429Z,27.20
2022-09-06T14:31:31.814Z,27.20
2022-09-06T14:33:58.605Z,27.30
2022-09-06T14:36:30.943Z,27.30
2022-09-06T14:38:59.557Z,27.20
2022-09-06T14:41:26.129Z,27.10
2022-09-06T14:43:56.776Z,27.00
2022-09-06T14:46:25.699Z,27.10
2022-09-06T14:49:07.919Z,26.90
2022-09-06T14:51:36.185Z,26.90
2022-09-06T14:54:09.241Z,26.90
2022-09-06T14:56:37.472Z,26.80
2022-09-06T14:59:04.429Z,26.80
2022-09-06T15:01:38.061Z,26.70
2022-09-06T15:04:08.678Z,26.60
2022-09-06T15:06:38.465Z,26.70
2022-09-06T15:09:06.389Z,26.50
2022-09-06T15:11:41.125Z,26.50
2022-09-06T15:14:23.377Z,26.40
2022-09-06T15:16:55.636Z,26.30
2022-09-06T15:19:24.744Z,26.40
2022-09-06T15:21:52.003Z,26.30
2022-09-06T15:24:20.037Z,26.20
2022-09-06T15:26:46.585Z,26.20
2022-09-06T15:29:14.829Z,26.10
2022-09-06T15:31:42.714Z,26.20
2022-09-06T15:34:11.273Z,26.10
2022-09-06T15:36:38.108Z,26.00
2022-09-06T15:39:05.957Z,26.10
2022-09-06T15:41:36.688Z,26.00
2022-09-06T15:44:16.125Z,25.90
2022-09-06T15:46:56.885Z,25.80
2022-09-06T15:49:33.082Z,25.70
2022-09-06T15:52:01.892Z,25.70
2022-09-06T15:54:47.663Z,25.50
2022-09-06T15:57:16.059Z,25.60
2022-09-06T15:59:42.603Z,25.60
2022-09-06T16:02:09.658Z,25.50
2022-09-06T16:04:36.194Z,25.40
2022-09-06T16:07:03.074Z,25.40
2022-09-06T16:09:29.775Z,25.20
2022-09-06T16:11:56.300Z,25.10
2022-09-06T16:14:22.918Z,25.00
2022-09-06T16:16:51.369Z,24.90
2022-09-06T16:19:17.951Z,24.90
2022-09-06T16:21:44.501Z,25.10
2022-09-06T16:24:13.664Z,25.30
2022-09-06T16:26:44.104Z,25.20
2022-09-06T16:29:13.421Z,25.10
2022-09-06T16:31:40.926Z,25.10
2022-09-06T16:34:12.060Z,24.90
2022-09-06T16:36:39.423Z,24.80
2022-09-06T16:39:07.173Z,24.60
2022-09-06T16:41:43.546Z,24.40
2022-09-06T16:44:17.066Z,24.30
2022-09-06T16:46:46.618Z,24.20
2022-09-06T16:49:16.420Z,24.10
2022-09-06T16:51:43.989Z,24.10
2022-09-06T16:54:10.610Z,24.00
2022-09-06T16:56:38.225Z,24.10
2022-09-06T16:59:07.741Z,24.00
2022-09-06T17:01:36.723Z,24.00
2022-09-06T17:04:05.061Z,23.80
2022-09-06T17:06:37.605Z,23.70
2022-09-06T17:09:04.854Z,23.60
2022-09-06T17:11:31.370Z,23.60
2022-09-06T17:13:58.078Z,23.70
2022-09-06T17:16:43.647Z,23.90
2022-09-06T17:19:10.628Z,23.70
2022-09-06T17:21:39.301Z,23.60
2022-09-06T17:24:07.857Z,23.50
2022-09-06T17:26:38.430Z,23.40
2022-09-06T17:29:07.539Z,23.30
2022-09-06T17:31:34.804Z,23.40
2022-09-06T17:34:01.320Z,23.40
2022-09-06T17:36:31.167Z,23.40
2022-09-06T17:39:10.825Z,23.30
2022-09-06T17:41:42.015Z,23.30
2022-09-06T17:44:11.381Z,23.40
2022-09-06T17:46:47.645Z,23.60
2022-09-06T17:49:18.987Z,23.40
2022-09-06T17:51:46.434Z,23.50
2022-09-06T17:54:16.456Z,23.30
2022-09-06T17:56:43.332Z,23.20
2022-09-06T17:59:13.387Z,23.10
2022-09-06T18:01:41.793Z,22.90
2022-09-06T18:04:10.481Z,23.00
2022-09-06T18:06:40.876Z,23.10
2022-09-06T18:09:15.145Z,23.00
2022-09-06T18:11:45.190Z,22.90
2022-09-06T18:14:16.234Z,22.80
2022-09-06T18:16:46.207Z,22.80
2022-09-06T18:19:13.058Z,22.90
2022-09-06T18:21:40.302Z,23.00
2022-09-06T18:24:08.874Z,23.00
2022-09-06T18:26:36.541Z,22.80
2022-09-06T18:29:06.277Z,22.70
2022-09-06T18:31:32.849Z,22.80
2022-09-06T18:33:59.692Z,22.80
2022-09-06T18:36:31.769Z,22.70
2022-09-06T18:39:03.440Z,22.70
2022-09-06T18:41:49.461Z,22.80
2022-09-06T18:44:16.827Z,22.70
2022-09-06T18:46:44.017Z,22.60
2022-09-06T18:49:12.788Z,22.60
2022-09-06T18:51:39.958Z,22.60
2022-09-06T18:54:07.084Z,22.60
2022-09-06T18:56:33.799Z,22.70
2022-09-06T18:59:01.401Z,22.80
2022-09-06T19:01:29.905Z,22.80
2022-09-06T19:03:58.679Z,22.90
2022-09-06T19:06:27.779Z,22.80
2022-09-06T19:08:59.371Z,22.80
2022-09-06T19:11:26.672Z,22.90
2022-09-06T19:13:55.877Z,22.70
2022-09-06T19:16:24.794Z,22.60
2022-09-06T19:18:54.398Z,22.60
2022-09-06T19:21:22.534Z,22.50
2022-09-06T19:23:57.675Z,22.50
2022-09-06T19:26:26.753Z,22.40
2022-09-06T19:28:59.694Z,22.30
2022-09-06T19:31:30.539Z,22.30
2022-09-06T19:33:58.512Z,22.30
2022-09-06T19:36:27.619Z,22.30
2022-09-06T19:39:06.787Z,22.20
2022-09-06T19:41:40.960Z,22.20
2022-09-06T19:44:10.112Z,22.20
2022-09-06T19:46:37.667Z,22.20
2022-09-06T19:49:07.432Z,22.00
2022-09-06T19:51:35.568Z,21.80
2022-09-06T19:54:02.945Z,21.70
2022-09-06T19:56:35.417Z,21.70
2022-09-06T19:59:08.231Z,21.60
2022-09-06T20:01:37.689Z,21.50
2022-09-06T20:04:07.581Z,21.50
2022-09-06T20:06:35.012Z,21.50
2022-09-06T20:09:04.876Z,21.40
2022-09-06T20:11:33.895Z,21.60
2022-09-06T20:14:00.952Z,21.60
2022-09-06T20:16:29.635Z,21.60
2022-09-06T20:18:58.289Z,21.70
2022-09-06T20:21:28.944Z,21.40
2022-09-06T20:23:58.488Z,21.20
2022-09-06T20:26:28.418Z,21.10
2022-09-06T20:28:58.936Z,21.00
2022-09-06T20:31:27.583Z,21.10
2022-09-06T20:33:54.913Z,21.20
2022-09-06T20:36:21.448Z,21.20
2022-09-06T20:38:48.749Z,21.30
2022-09-06T20:41:22.879Z,21.30
2022-09-06T20:43:57.904Z,21.10
2022-09-06T20:46:29.132Z,21.10
2022-09-06T20:48:58.980Z,21.10
2022-09-06T20:51:28.870Z,21.00
2022-09-06T20:53:59.513Z,21.00
2022-09-06T20:56:33.065Z,21.00
2022-09-06T20:59:03.856Z,21.00
2022-09-06T21:01:34.245Z,21.00
2022-09-06T21:04:04.093Z,20.90
2022-09-06T21:06:35.445Z,20.80
2022-09-06T21:09:05.162Z,20.80
2022-09-06T21:11:32.226Z,20.70
2022-09-06T21:13:58.801Z,20.80
2022-09-06T21:16:28.442Z,20.80
2022-09-06T21:18:58.785Z,20.80
2022-09-06T21:21:27.078Z,20.90
2022-09-06T21:23:53.990Z,20.80
2022-09-06T21:26:21.618Z,20.70
2022-09-06T21:28:52.350Z,20.70
2022-09-06T21:31:25.445Z,20.70
2022-09-06T21:33:55.148Z,20.70
2022-09-06T21:36:33.167Z,20.60
2022-09-06T21:39:04.250Z,20.50
2022-09-06T21:41:33.663Z,20.60
2022-09-06T21:44:02.532Z,20.70
2022-09-06T21:46:33.790Z,20.70
2022-09-06T21:49:04.329Z,20.50
2022-09-06T21:51:31.883Z,20.40
2022-09-06T21:54:02.432Z,20.40
2022-09-06T21:56:29.339Z,20.40
2022-09-06T21:58:57.780Z,20.30
2022-09-06T22:01:28.195Z,20.30
2022-09-06T22:03:54.812Z,20.20
2022-09-06T22:06:24.914Z,20.10
2022-09-06T22:08:53.319Z,20.20
2022-09-06T22:11:23.675Z,20.10
2022-09-06T22:13:51.116Z,20.00
2022-09-06T22:16:21.748Z,20.00
2022-09-06T22:18:49.311Z,20.20
2022-09-06T22:21:20.409Z,20.10
2022-09-06T22:23:59.446Z,20.10
2022-09-06T22:26:28.886Z,20.00
2022-09-06T22:29:01.655Z,20.10
2022-09-06T22:31:31.705Z,20.10
2022-09-06T22:33:59.086Z,19.90
2022-09-06T22:36:26.506Z,19.90
2022-09-06T22:38:56.522Z,19.80
2022-09-06T22:41:28.293Z,19.80
2022-09-06T22:43:55.695Z,19.70
2022-09-06T22:46:22.449Z,19.70
2022-09-06T22:48:49.025Z,19.70
2022-09-06T22:51:15.711Z,19.70
2022-09-06T22:53:42.239Z,19.60
2022-09-06T22:56:08.976Z,19.50
2022-09-06T22:58:35.481Z,19.40
2022-09-06T23:01:11.085Z,19.40
2022-09-06T23:03:38.718Z,19.30
2022-09-06T23:06:06.142Z,19.20
2022-09-06T23:08:36.361Z,19.20
2022-09-06T23:11:10.976Z,19.20
2022-09-06T23:13:37.952Z,19.20
2022-09-06T23:16:09.556Z,19.20
2022-09-06T23:18:36.327Z,19.20
2022-09-06T23:21:08.371Z,19.20
2022-09-06T23:23:37.674Z,19.10
2022-09-06T23:26:13.294Z,19.00
2022-09-06T23:28:40.007Z,18.90
2022-09-06T23:31:14.086Z,18.90
2022-09-06T23:33:41.628Z,18.80
2022-09-06T23:36:13.981Z,18.70
2022-09-06T23:38:41.952Z,18.70
2022-09-06T23:41:09.563Z,18.70
2022-09-06T23:43:37.020Z,18.70
2022-09-06T23:46:04.360Z,18.60
2022-09-06T23:48:30.981Z,18.70
2022-09-06T23:50:57.676Z,18.50
2022-09-06T23:53:24.400Z,18.50
2022-09-06T23:55:51.122Z,18.40
2022-09-06T23:58:17.642Z,18.40
